createdAt,value
2019-05-09T00:00:33.553Z,59.37
2019-05-09T00:03:03.482Z,59.23
2019-05-09T00:05:33.478Z,59.06
2019-05-09T00:08:03.533Z,59.35
2019-05-09T00:10:39.439Z,59.89
2019-05-09T00:13:03.361Z,60.27
2019-05-09T00:15:33.280Z,60.74
2019-05-09T00:18:03.909Z,61.16
2019-05-09T00:20:39.601Z,61.84
2019-05-09T00:23:08.004Z,62.32
2019-05-09T00:25:36.433Z,62.94
2019-05-09T00:28:05.546Z,63.55
2019-05-09T00:30:54.017Z,64.10
2019-05-09T00:33:23.738Z,64.43
2019-05-09T00:35:53.412Z,64.32
2019-05-09T00:38:24.067Z,64.45
2019-05-09T00:40:58.407Z,64.97
2019-05-09T00:43:23.758Z,65.05
2019-05-09T00:46:04.087Z,65.09
2019-05-09T00:48:37.263Z,65.43
2019-05-09T00:51:05.889Z,65.61
2019-05-09T00:53:34.429Z,65.97
2019-05-09T00:56:04.264Z,66.42
2019-05-09T00:58:33.587Z,66.77
2019-05-09T01:01:04.316Z,67.04
2019-05-09T01:03:33.920Z,67.05
2019-05-09T01:06:04.243Z,67.08
2019-05-09T01:08:33.696Z,67.06
2019-05-09T01:11:11.406Z,67.11
2019-05-09T01:13:34.157Z,67.48
2019-05-09T01:16:04.558Z,67.83
2019-05-09T01:18:33.246Z,68.00
2019-05-09T01:21:03.723Z,68.33
2019-05-09T01:23:34.006Z,68.43
2019-05-09T01:26:03.858Z,68.44
2019-05-09T01:28:33.888Z,68.29
2019-05-09T01:31:04.226Z,68.61
2019-05-09T01:33:43.931Z,68.75
2019-05-09T01:36:14.385Z,68.98
2019-05-09T01:38:43.391Z,68.95
2019-05-09T01:41:24.640Z,68.62
2019-05-09T01:43:44.138Z,68.73
2019-05-09T01:46:14.269Z,68.86
2019-05-09T01:48:43.133Z,68.52
2019-05-09T01:51:13.895Z,68.52
2019-05-09T01:53:43.811Z,67.87
2019-05-09T01:56:13.994Z,68.37
2019-05-09T01:58:43.135Z,67.73
2019-05-09T02:01:13.431Z,67.98
2019-05-09T02:03:43.649Z,67.69
2019-05-09T02:06:13.684Z,68.03
2019-05-09T02:08:43.818Z,67.87
2019-05-09T02:11:13.379Z,67.84
2019-05-09T02:13:44.049Z,68.61
2019-05-09T02:16:19.830Z,68.60
2019-05-09T02:18:49.940Z,68.62
2019-05-09T02:21:18.410Z,68.81
2019-05-09T02:23:46.816Z,69.33
2019-05-09T02:26:15.374Z,69.33
2019-05-09T02:28:43.772Z,68.97
2019-05-09T02:31:15.736Z,69.22
2019-05-09T02:33:45.533Z,69.51
2019-05-09T02:36:12.588Z,69.65
2019-05-09T02:38:40.996Z,69.73
2019-05-09T02:41:09.665Z,69.40
2019-05-09T02:43:38.882Z,69.62
2019-05-09T02:46:10.014Z,69.39
2019-05-09T02:48:38.801Z,68.98
2019-05-09T02:51:09.308Z,69.10
2019-05-09T02:53:39.442Z,69.11
2019-05-09T02:56:09.191Z,69.07
2019-05-09T02:58:48.414Z,69.48
2019-05-09T03:01:23.632Z,69.37
2019-05-09T03:03:52.134Z,68.64
2019-05-09T03:06:20.544Z,68.94
2019-05-09T03:08:49.392Z,68.72
2019-05-09T03:11:18.837Z,68.84
2019-05-09T03:13:49.590Z,69.00
2019-05-09T03:16:19.126Z,68.90
2019-05-09T03:18:49.449Z,68.70
2019-05-09T03:21:29.737Z,68.63
2019-05-09T03:23:59.380Z,68.74
2019-05-09T03:26:29.645Z,68.75
2019-05-09T03:28:59.976Z,68.80
2019-05-09T03:31:30.236Z,68.87
2019-05-09T03:33:59.707Z,69.35
2019-05-09T03:36:28.350Z,69.50
2019-05-09T03:38:57.833Z,69.66
2019-05-09T03:41:28.127Z,69.59
2019-05-09T03:43:58.576Z,69.78
2019-05-09T03:46:34.470Z,69.51
2019-05-09T03:49:04.622Z,70.09
2019-05-09T03:51:33.030Z,69.74
2019-05-09T03:54:01.438Z,70.05
2019-05-09T03:56:31.582Z,69.86
2019-05-09T03:58:59.994Z,69.62
2019-05-09T04:01:28.404Z,69.73
2019-05-09T04:03:58.374Z,69.68
2019-05-09T04:06:28.230Z,70.02
2019-05-09T04:08:58.504Z,70.09
2019-05-09T04:11:27.686Z,70.42
2019-05-09T04:14:00.724Z,70.67
2019-05-09T04:16:29.132Z,71.22
2019-05-09T04:18:58.269Z,71.52
2019-05-09T04:21:27.993Z,71.81
2019-05-09T04:23:58.474Z,71.87
2019-05-09T04:26:31.973Z,72.17
2019-05-09T04:29:00.387Z,71.91
2019-05-09T04:31:28.798Z,71.80
2019-05-09T04:33:57.546Z,72.06
2019-05-09T04:36:40.739Z,71.60
2019-05-09T04:39:18.040Z,71.40
2019-05-09T04:41:41.957Z,71.37
2019-05-09T04:44:20.961Z,71.31
2019-05-09T04:46:48.270Z,71.25
2019-05-09T04:49:18.492Z,71.15
2019-05-09T04:51:47.963Z,70.99
2019-05-09T04:54:17.782Z,71.14
2019-05-09T04:56:47.477Z,71.55
2019-05-09T04:59:17.911Z,71.83
2019-05-09T05:01:47.890Z,71.81
2019-05-09T05:04:18.070Z,71.69
2019-05-09T05:06:47.812Z,71.84
2019-05-09T05:09:20.473Z,72.36
2019-05-09T05:11:49.087Z,72.72
2019-05-09T05:14:23.228Z,72.87
2019-05-09T05:16:54.810Z,72.94
2019-05-09T05:19:24.099Z,72.76
2019-05-09T05:21:52.610Z,72.29
2019-05-09T05:24:22.661Z,72.30
2019-05-09T05:26:51.071Z,72.20
2019-05-09T05:29:19.597Z,72.26
2019-05-09T05:31:48.376Z,72.35
2019-05-09T05:34:18.463Z,72.43
2019-05-09T05:36:47.653Z,72.39
2019-05-09T05:39:17.870Z,72.30
2019-05-09T05:41:48.409Z,72.51
2019-05-09T05:44:19.733Z,72.53
2019-05-09T05:46:55.642Z,72.40
2019-05-09T05:49:24.055Z,72.43
2019-05-09T05:51:52.618Z,72.59
2019-05-09T05:54:22.108Z,72.85
2019-05-09T05:56:53.629Z,72.98
2019-05-09T05:59:22.265Z,72.65
2019-05-09T06:01:50.657Z,72.56
2019-05-09T06:04:19.064Z,72.60
2019-05-09T06:06:48.127Z,72.71
2019-05-09T06:09:19.061Z,72.63
2019-05-09T06:11:48.480Z,72.44
2019-05-09T06:14:18.437Z,72.35
2019-05-09T06:16:48.551Z,72.09
2019-05-09T06:19:17.947Z,72.14
2019-05-09T06:21:48.478Z,72.22
2019-05-09T06:24:17.716Z,72.26
2019-05-09T06:26:47.878Z,72.36
2019-05-09T06:29:17.836Z,72.73
2019-05-09T06:31:48.488Z,72.85
2019-05-09T06:34:18.731Z,72.94
2019-05-09T06:36:48.835Z,72.99
2019-05-09T06:39:17.958Z,72.89
2019-05-09T06:41:48.409Z,72.91
2019-05-09T06:44:20.677Z,72.94
2019-05-09T06:46:59.117Z,72.88
2019-05-09T06:49:31.895Z,72.87
2019-05-09T06:51:59.323Z,72.81
2019-05-09T06:54:27.990Z,72.63
2019-05-09T06:56:58.447Z,72.59
2019-05-09T06:59:28.322Z,72.44
2019-05-09T07:02:01.520Z,72.31
2019-05-09T07:04:31.567Z,72.26
2019-05-09T07:07:01.615Z,72.00
2019-05-09T07:09:34.523Z,71.80
2019-05-09T07:12:03.004Z,71.69
2019-05-09T07:14:37.534Z,71.58
2019-05-09T07:17:03.390Z,71.59
2019-05-09T07:19:31.802Z,71.35
2019-05-09T07:22:02.223Z,71.34
2019-05-09T07:24:31.343Z,71.35
2019-05-09T07:26:59.821Z,71.16
2019-05-09T07:29:29.881Z,71.14
2019-05-09T07:32:07.529Z,70.90
2019-05-09T07:34:38.214Z,70.56
2019-05-09T07:37:08.383Z,70.12
2019-05-09T07:39:37.995Z,69.86
2019-05-09T07:42:07.690Z,69.61
2019-05-09T07:44:46.276Z,69.28
2019-05-09T07:47:07.541Z,68.85
2019-05-09T07:49:37.705Z,68.63
2019-05-09T07:52:09.890Z,68.42
2019-05-09T07:54:37.719Z,68.22
2019-05-09T07:57:08.346Z,67.56
2019-05-09T07:59:38.743Z,66.91
2019-05-09T08:02:08.765Z,66.25
2019-05-09T08:04:38.621Z,64.98
2019-05-09T08:07:08.385Z,64.69
2019-05-09T08:09:38.797Z,64.75
2019-05-09T08:12:07.560Z,64.38
2019-05-09T08:14:37.773Z,63.02
2019-05-09T08:17:08.614Z,62.27
2019-05-09T08:19:38.019Z,62.21
2019-05-09T08:22:07.994Z,61.52
2019-05-09T08:24:37.987Z,60.48
2019-05-09T08:27:08.547Z,59.58
2019-05-09T08:29:38.725Z,59.44
2019-05-09T08:32:07.633Z,59.21
2019-05-09T08:34:37.760Z,59.00
2019-05-09T08:37:08.133Z,58.78
2019-05-09T08:39:38.315Z,58.31
2019-05-09T08:42:08.513Z,58.31
2019-05-09T08:44:38.265Z,58.18
2019-05-09T08:47:07.843Z,57.75
2019-05-09T08:49:46.458Z,57.44
2019-05-09T08:52:16.614Z,56.97
2019-05-09T08:54:48.542Z,56.46
2019-05-09T08:57:18.200Z,56.28
2019-05-09T08:59:50.233Z,56.23
2019-05-09T09:02:21.938Z,55.55
2019-05-09T09:04:48.944Z,55.26
2019-05-09T09:07:18.946Z,54.92
2019-05-09T09:09:48.290Z,54.20
2019-05-09T09:12:27.048Z,53.88
2019-05-09T09:14:47.815Z,53.81
2019-05-09T09:17:18.755Z,53.49
2019-05-09T09:19:47.850Z,53.34
2019-05-09T09:22:18.036Z,53.36
2019-05-09T09:24:48.161Z,53.05
2019-05-09T09:27:18.236Z,52.58
2019-05-09T09:29:48.061Z,52.39
2019-05-09T09:32:18.987Z,52.28
2019-05-09T09:34:48.462Z,52.72
2019-05-09T09:37:18.469Z,52.42
2019-05-09T09:39:48.870Z,51.35
2019-05-09T09:42:19.790Z,51.37
2019-05-09T09:44:48.169Z,51.68
2019-05-09T09:47:22.310Z,51.10
2019-05-09T09:49:49.057Z,50.57
2019-05-09T09:52:18.716Z,49.84
2019-05-09T09:54:48.197Z,49.27
2019-05-09T09:57:19.012Z,48.90
2019-05-09T09:59:48.991Z,48.71
2019-05-09T10:02:19.040Z,48.09
2019-05-09T10:04:47.442Z,47.81
2019-05-09T10:07:15.888Z,47.83
2019-05-09T10:09:44.364Z,47.33
2019-05-09T10:12:12.836Z,46.67
2019-05-09T10:14:43.184Z,46.09
2019-05-09T10:17:13.233Z,46.05
2019-05-09T10:19:43.274Z,45.76
2019-05-09T10:22:13.469Z,46.07
2019-05-09T10:24:41.881Z,46.65
2019-05-09T10:27:14.734Z,47.14
2019-05-09T10:29:43.281Z,47.13
2019-05-09T10:32:18.242Z,47.31
2019-05-09T10:34:48.860Z,46.41
2019-05-09T10:37:18.579Z,45.41
2019-05-09T10:39:49.004Z,45.66
2019-05-09T10:42:34.662Z,45.84
2019-05-09T10:45:07.944Z,45.78
2019-05-09T10:47:37.802Z,45.80
2019-05-09T10:50:08.608Z,45.74
2019-05-09T10:52:37.130Z,45.25
2019-05-09T10:55:09.045Z,44.75
2019-05-09T10:57:41.725Z,44.39
2019-05-09T11:00:08.918Z,44.19
2019-05-09T11:02:37.390Z,43.91
2019-05-09T11:05:08.423Z,43.65
2019-05-09T11:07:38.104Z,44.21
2019-05-09T11:10:23.978Z,44.73
2019-05-09T11:12:37.375Z,44.95
2019-05-09T11:15:08.999Z,44.86
2019-05-09T11:17:38.856Z,44.64
2019-05-09T11:20:08.715Z,44.61
2019-05-09T11:22:38.665Z,44.64
2019-05-09T11:25:08.760Z,44.47
2019-05-09T11:27:38.904Z,43.71
2019-05-09T11:30:08.475Z,43.31
2019-05-09T11:32:38.575Z,43.22
2019-05-09T11:35:08.966Z,43.57
2019-05-09T11:37:38.351Z,44.26
2019-05-09T11:40:07.454Z,44.18
2019-05-09T11:42:37.955Z,44.53
2019-05-09T11:45:07.782Z,44.70
2019-05-09T11:47:42.643Z,44.79
2019-05-09T11:50:08.767Z,44.75
2019-05-09T11:52:38.276Z,45.20
2019-05-09T11:55:09.332Z,45.73
2019-05-09T11:57:38.417Z,46.01
2019-05-09T12:00:08.296Z,46.74
2019-05-09T12:02:38.543Z,47.44
2019-05-09T12:05:08.756Z,47.67
2019-05-09T12:07:38.046Z,47.96
2019-05-09T12:10:07.943Z,48.16
2019-05-09T12:12:38.859Z,48.27
2019-05-09T12:15:10.792Z,48.39
2019-05-09T12:17:53.253Z,48.85
2019-05-09T12:20:13.464Z,49.40
2019-05-09T12:22:40.193Z,50.25
2019-05-09T12:25:09.133Z,51.44
2019-05-09T12:27:37.598Z,52.29
2019-05-09T12:30:09.334Z,53.42
2019-05-09T12:32:38.506Z,54.09
2019-05-09T12:37:56.145Z,55.38
2019-05-09T12:40:24.578Z,56.27
2019-05-09T12:42:52.980Z,56.79
2019-05-09T12:45:21.472Z,56.47
2019-05-09T12:48:05.214Z,56.07
2019-05-09T12:50:20.032Z,55.96
2019-05-09T12:52:48.840Z,56.14
2019-05-09T12:55:17.965Z,55.69
2019-05-09T12:57:48.821Z,55.38
2019-05-09T13:00:18.661Z,55.20
2019-05-09T13:02:47.484Z,54.87
2019-05-09T13:05:18.119Z,55.08
2019-05-09T13:07:48.101Z,54.46
2019-05-09T13:10:19.359Z,54.14
2019-05-09T13:12:48.466Z,53.82
2019-05-09T13:15:18.828Z,52.96
2019-05-09T13:17:49.121Z,51.80
2019-05-09T13:20:18.129Z,50.46
2019-05-09T13:22:47.763Z,49.22
2019-05-09T13:25:18.927Z,48.61
2019-05-09T13:27:47.882Z,47.61
2019-05-09T13:30:18.924Z,46.81
2019-05-09T13:32:48.420Z,46.57
2019-05-09T13:35:19.775Z,46.10
2019-05-09T13:37:49.145Z,44.68
2019-05-09T13:40:18.924Z,43.99
2019-05-09T13:42:49.011Z,43.11
2019-05-09T13:45:18.599Z,43.30
2019-05-09T13:47:48.448Z,43.41
2019-05-09T13:50:18.586Z,43.02
2019-05-09T13:52:48.001Z,42.86
2019-05-09T13:55:17.799Z,42.36
2019-05-09T13:57:48.524Z,42.32
2019-05-09T14:00:18.406Z,42.06
2019-05-09T14:02:48.770Z,42.27
2019-05-09T14:05:19.076Z,41.96
2019-05-09T14:07:49.213Z,41.64
2019-05-09T14:10:18.153Z,41.77
2019-05-09T14:13:02.088Z,42.16
2019-05-09T14:15:18.448Z,42.33
2019-05-09T14:17:53.173Z,42.73
2019-05-09T14:20:18.011Z,42.86
2019-05-09T14:22:49.033Z,42.71
2019-05-09T14:25:19.622Z,42.44
2019-05-09T14:27:49.736Z,42.89
2019-05-09T14:30:19.802Z,43.09
2019-05-09T14:32:49.722Z,43.35
2019-05-09T14:35:18.492Z,43.09
2019-05-09T14:37:48.795Z,43.04
2019-05-09T14:40:17.744Z,43.04
2019-05-09T14:42:46.145Z,42.68
2019-05-09T14:45:14.714Z,42.57
2019-05-09T14:47:43.219Z,42.28
2019-05-09T14:50:12.180Z,42.37
2019-05-09T14:52:40.597Z,42.54
2019-05-09T14:55:29.949Z,42.51
2019-05-09T14:57:58.364Z,41.85
2019-05-09T15:00:28.369Z,41.63
2019-05-09T15:02:58.065Z,41.82
2019-05-09T15:05:27.861Z,41.71
2019-05-09T15:07:59.237Z,42.07
2019-05-09T15:10:26.799Z,42.66
2019-05-09T15:12:55.287Z,43.04
2019-05-09T15:15:23.753Z,43.29
2019-05-09T15:17:52.680Z,43.41
2019-05-09T15:20:21.096Z,43.84
2019-05-09T15:22:49.497Z,44.38
2019-05-09T15:25:19.406Z,51.05
2019-05-09T15:27:48.350Z,55.30
2019-05-09T15:30:18.677Z,57.10
2019-05-09T15:32:47.569Z,57.98
2019-05-09T15:35:18.281Z,57.98
2019-05-09T15:37:48.037Z,58.01
2019-05-09T15:40:17.724Z,58.47
2019-05-09T15:42:47.929Z,57.98
2019-05-09T15:45:18.305Z,58.15
2019-05-09T15:47:48.291Z,58.59
2019-05-09T15:50:22.743Z,58.91
2019-05-09T15:52:47.126Z,57.92
2019-05-09T15:55:17.721Z,57.52
2019-05-09T15:57:48.414Z,57.01
2019-05-09T16:00:19.422Z,57.73
2019-05-09T16:02:48.596Z,57.00
2019-05-09T16:05:18.056Z,55.63
2019-05-09T16:07:48.254Z,54.99
2019-05-09T16:10:17.867Z,54.62
2019-05-09T16:12:48.640Z,54.91
2019-05-09T16:15:18.274Z,54.75
2019-05-09T16:17:48.435Z,54.60
2019-05-09T16:20:23.026Z,54.40
2019-05-09T16:22:48.358Z,53.65
2019-05-09T16:25:18.809Z,54.00
2019-05-09T16:27:48.434Z,53.40
2019-05-09T16:30:17.763Z,53.11
2019-05-09T16:32:48.066Z,52.47
2019-05-09T16:35:18.216Z,52.19
2019-05-09T16:37:58.375Z,51.59
2019-05-09T16:40:17.158Z,50.52
2019-05-09T16:42:47.551Z,50.00
2019-05-09T16:45:18.018Z,49.70
2019-05-09T16:47:48.264Z,49.80
2019-05-09T16:50:18.006Z,49.85
2019-05-09T16:52:48.874Z,49.63
2019-05-09T16:55:18.423Z,49.87
2019-05-09T16:57:46.837Z,50.26
2019-05-09T17:00:18.495Z,50.05
2019-05-09T17:02:48.156Z,50.06
2019-05-09T17:05:17.432Z,50.37
2019-05-09T17:07:47.629Z,50.44
2019-05-09T17:10:17.764Z,50.28
2019-05-09T17:12:47.864Z,50.12
2019-05-09T17:15:19.203Z,50.09
2019-05-09T17:17:48.004Z,49.83
2019-05-09T17:20:19.383Z,49.70
2019-05-09T17:23:13.537Z,49.29
2019-05-09T17:25:38.309Z,49.19
2019-05-09T17:28:06.342Z,49.10
2019-05-09T17:30:34.869Z,49.10
2019-05-09T17:33:04.377Z,49.29
2019-05-09T17:35:33.132Z,49.19
2019-05-09T17:38:01.574Z,48.99
2019-05-09T17:40:30.227Z,48.89
2019-05-09T17:42:59.215Z,48.76
2019-05-09T17:45:27.926Z,48.64
2019-05-09T17:47:59.851Z,48.65
2019-05-09T17:50:28.657Z,48.56
2019-05-09T17:52:57.882Z,48.57
2019-05-09T17:55:26.445Z,49.45
2019-05-09T17:57:54.917Z,49.88
2019-05-09T18:00:24.263Z,49.84
2019-05-09T18:02:52.667Z,49.96
2019-05-09T18:05:21.210Z,49.93
2019-05-09T18:07:49.647Z,50.02
2019-05-09T18:10:20.065Z,50.29
2019-05-09T18:12:49.107Z,50.40
2019-05-09T18:15:18.763Z,50.32
2019-05-09T18:17:47.982Z,50.16
2019-05-09T18:20:17.797Z,49.75
2019-05-09T18:22:47.912Z,49.16
2019-05-09T18:25:18.765Z,49.38
2019-05-09T18:27:48.811Z,50.01
2019-05-09T18:30:18.650Z,49.47
2019-05-09T18:33:03.841Z,48.29
2019-05-09T18:35:33.047Z,47.63
2019-05-09T18:38:02.023Z,47.42
2019-05-09T18:40:30.500Z,47.35
2019-05-09T18:42:58.936Z,47.24
2019-05-09T18:45:28.436Z,47.06
2019-05-09T18:47:58.006Z,46.94
2019-05-09T18:50:27.133Z,47.06
2019-05-09T18:52:55.698Z,47.07
2019-05-09T18:55:24.180Z,47.16
2019-05-09T18:57:52.776Z,47.10
2019-05-09T19:00:21.921Z,47.12
2019-05-09T19:02:51.065Z,46.91
2019-05-09T19:05:19.769Z,47.03
2019-05-09T19:07:48.166Z,47.04
2019-05-09T19:10:16.805Z,47.13
2019-05-09T19:12:45.399Z,47.19
2019-05-09T19:15:15.888Z,47.16
2019-05-09T19:17:55.052Z,47.17
2019-05-09T19:20:28.332Z,47.33
2019-05-09T19:22:56.811Z,47.28
2019-05-09T19:25:25.239Z,47.46
2019-05-09T19:27:53.719Z,47.62
2019-05-09T19:30:22.138Z,47.76
2019-05-09T19:32:50.880Z,47.88
2019-05-09T19:35:19.322Z,47.88
2019-05-09T19:37:47.742Z,47.90
2019-05-09T19:40:20.049Z,48.12
2019-05-09T19:42:46.841Z,48.30
2019-05-09T19:45:17.066Z,48.41
2019-05-09T19:47:45.750Z,48.44
2019-05-09T19:50:14.693Z,48.48
2019-05-09T19:52:43.131Z,48.52
2019-05-09T19:55:12.299Z,48.61
2019-05-09T19:57:40.728Z,48.75
2019-05-09T20:00:10.118Z,48.87
2019-05-09T20:02:38.668Z,48.95
2019-05-09T20:05:08.781Z,49.08
2019-05-09T20:07:37.203Z,49.35
2019-05-09T20:10:11.944Z,49.56
2019-05-09T20:12:42.070Z,49.78
2019-05-09T20:15:12.844Z,49.98
2019-05-09T20:17:41.478Z,50.27
2019-05-09T20:20:09.974Z,50.89
2019-05-09T20:22:51.858Z,51.80
2019-05-09T20:25:08.822Z,52.28
2019-05-09T20:27:37.239Z,52.95
2019-05-09T20:30:07.137Z,53.37
2019-05-09T20:32:37.327Z,53.33
2019-05-09T20:35:09.126Z,53.26
2019-05-09T20:37:37.678Z,53.53
2019-05-09T20:40:09.621Z,54.00
2019-05-09T20:42:38.345Z,54.25
2019-05-09T20:45:07.680Z,54.37
2019-05-09T20:47:36.320Z,54.32
2019-05-09T20:50:06.642Z,53.76
2019-05-09T20:52:35.226Z,53.31
2019-05-09T20:55:04.621Z,52.91
2019-05-09T20:57:33.209Z,52.33
2019-05-09T21:00:01.962Z,51.88
2019-05-09T21:02:30.616Z,51.37
2019-05-09T21:04:59.274Z,50.97
2019-05-09T21:07:27.864Z,50.72
2019-05-09T21:09:56.641Z,50.55
2019-05-09T21:12:25.234Z,50.45
2019-05-09T21:14:55.327Z,50.29
2019-05-09T21:17:24.128Z,50.23
2019-05-09T21:19:52.748Z,50.07
2019-05-09T21:22:21.343Z,50.06
2019-05-09T21:24:49.952Z,50.05
2019-05-09T21:27:18.534Z,50.13
2019-05-09T21:29:47.134Z,50.08
2019-05-09T21:32:15.933Z,50.11
2019-05-09T21:34:44.388Z,50.11
2019-05-09T21:37:14.035Z,50.21
2019-05-09T21:39:42.577Z,50.29
2019-05-09T21:42:10.991Z,50.32
2019-05-09T21:44:39.399Z,50.40
2019-05-09T21:47:07.946Z,50.44
2019-05-09T21:49:36.425Z,50.51
2019-05-09T21:52:04.834Z,50.58
2019-05-09T21:54:33.586Z,50.66
2019-05-09T21:57:02.001Z,50.85
2019-05-09T21:59:30.406Z,50.96
2019-05-09T22:01:59.353Z,51.14
2019-05-09T22:04:27.854Z,51.30
2019-05-09T22:06:56.257Z,51.54
2019-05-09T22:09:24.678Z,51.74
2019-05-09T22:11:53.155Z,52.02
2019-05-09T22:14:21.643Z,52.23
2019-05-09T22:16:50.226Z,52.42
2019-05-09T22:19:18.641Z,52.62
2019-05-09T22:21:47.058Z,52.87
2019-05-09T22:24:15.546Z,53.04
2019-05-09T22:26:43.947Z,53.17
2019-05-09T22:29:12.679Z,53.36
2019-05-09T22:31:41.109Z,53.54
2019-05-09T22:34:09.513Z,53.93
2019-05-09T22:36:37.917Z,54.17
2019-05-09T22:39:08.300Z,54.32
2019-05-09T22:41:36.771Z,54.58
2019-05-09T22:44:05.183Z,54.82
2019-05-09T22:46:33.603Z,55.21
2019-05-09T22:49:02.040Z,56.02
2019-05-09T22:51:30.417Z,57.79
2019-05-09T22:54:11.532Z,59.20
2019-05-09T22:56:28.983Z,60.06
2019-05-09T22:58:57.403Z,60.88
2019-05-09T23:01:25.877Z,61.54
2019-05-09T23:03:54.277Z,62.38
2019-05-09T23:06:22.699Z,62.35
2019-05-09T23:08:52.216Z,62.79
2019-05-09T23:11:20.788Z,63.23
2019-05-09T23:13:52.475Z,63.79
2019-05-09T23:16:23.585Z,64.41
2019-05-09T23:18:52.356Z,64.80
2019-05-09T23:21:21.705Z,65.12
2019-05-09T23:23:57.894Z,65.67
2019-05-09T23:26:26.298Z,65.96
2019-05-09T23:28:54.713Z,66.01
2019-05-09T23:31:28.108Z,66.06
2019-05-09T23:33:56.515Z,66.15
2019-05-09T23:36:24.926Z,66.32
2019-05-09T23:38:58.061Z,65.94
2019-05-09T23:41:26.721Z,65.54
2019-05-09T23:43:56.673Z,65.43
2019-05-09T23:46:25.228Z,65.43
2019-05-09T23:48:53.647Z,65.32
2019-05-09T23:51:22.367Z,65.22
2019-05-09T23:53:53.047Z,65.11
2019-05-09T23:56:39.953Z,65.24
2019-05-09T23:59:27.325Z,64.96
